createdAt,value
2022-10-19T00:02:50.799Z,16.99
2022-10-19T00:06:52.327Z,17.00
2022-10-19T00:10:53.893Z,16.99
2022-10-19T00:14:55.421Z,16.99
2022-10-19T00:19:02.094Z,17.02
2022-10-19T00:23:04.140Z,17.05
2022-10-19T00:27:06.290Z,17.07
2022-10-19T00:31:12.017Z,17.07
2022-10-19T00:35:13.596Z,17.05
2022-10-19T00:39:17.403Z,17.02
2022-10-19T00:43:24.908Z,16.96
2022-10-19T00:47:27.058Z,16.98
2022-10-19T00:51:30.283Z,17.02
2022-10-19T00:55:32.939Z,16.99
2022-10-19T00:59:35.098Z,17.02
2022-10-19T01:03:36.661Z,17.03
2022-10-19T01:07:38.153Z,17.03
2022-10-19T01:12:08.798Z,17.03
2022-10-19T01:16:18.612Z,17.03
2022-10-19T01:21:07.241Z,17.02
2022-10-19T01:25:37.805Z,17.00
2022-10-19T01:30:00.082Z,17.00
2022-10-19T01:34:10.788Z,17.02
2022-10-19T01:38:54.415Z,17.00
2022-10-19T01:43:00.624Z,16.95
2022-10-19T01:47:09.993Z,16.91
2022-10-19T01:51:23.099Z,16.87
2022-10-19T01:55:27.095Z,16.84
2022-10-19T01:59:29.461Z,16.78
2022-10-19T02:03:31.840Z,16.78
2022-10-19T02:07:34.728Z,16.73
2022-10-19T02:11:37.498Z,16.77
2022-10-19T02:15:42.595Z,16.73
2022-10-19T02:19:44.102Z,16.73
2022-10-19T02:23:46.737Z,16.72
2022-10-19T02:27:49.017Z,16.67
2022-10-19T02:31:50.529Z,16.62
2022-10-19T02:35:52.121Z,16.60
2022-10-19T02:39:53.651Z,16.54
2022-10-19T02:44:28.651Z,16.51
2022-10-19T02:48:33.336Z,16.42
2022-10-19T02:52:40.593Z,16.37
2022-10-19T02:56:42.101Z,16.37
2022-10-19T03:00:43.633Z,16.30
2022-10-19T03:08:52.481Z,16.13
2022-10-19T03:12:54.029Z,16.07
2022-10-19T03:16:55.586Z,16.01
2022-10-19T03:21:09.154Z,15.99
2022-10-19T03:25:10.644Z,16.03
2022-10-19T03:29:12.198Z,16.03
2022-10-19T03:33:13.773Z,16.07
2022-10-19T03:37:15.331Z,15.98
2022-10-19T03:41:16.826Z,15.89
2022-10-19T03:45:18.371Z,15.86
2022-10-19T03:49:19.896Z,15.86
2022-10-19T03:53:21.411Z,15.85
2022-10-19T03:57:22.945Z,15.76
2022-10-19T04:01:30.437Z,15.64
2022-10-19T04:05:32.001Z,15.60
2022-10-19T04:09:33.497Z,15.59
2022-10-19T04:13:35.518Z,15.66
2022-10-19T04:17:37.192Z,15.66
2022-10-19T04:21:40.453Z,15.68
2022-10-19T04:25:42.030Z,15.73
2022-10-19T04:29:43.511Z,15.74
2022-10-19T04:37:47.686Z,15.80
2022-10-19T04:41:49.386Z,15.78
2022-10-19T04:45:50.904Z,15.78
2022-10-19T04:49:52.478Z,15.85
2022-10-19T04:53:58.606Z,15.86
2022-10-19T04:58:01.304Z,15.89
2022-10-19T05:02:02.953Z,15.92
2022-10-19T05:06:05.484Z,15.93
2022-10-19T05:10:08.590Z,15.95
2022-10-19T05:14:10.252Z,15.99
2022-10-19T05:18:11.810Z,15.98
2022-10-19T05:22:13.313Z,15.95
2022-10-19T05:26:17.802Z,15.98
2022-10-19T05:30:21.779Z,15.99
2022-10-19T05:34:23.270Z,15.99
2022-10-19T05:38:24.931Z,15.96
2022-10-19T05:42:26.439Z,15.96
2022-10-19T05:46:29.729Z,15.93
2022-10-19T05:50:31.226Z,15.93
2022-10-19T05:54:32.873Z,15.91
2022-10-19T05:58:35.373Z,15.91
2022-10-19T06:02:36.927Z,15.89
2022-10-19T06:06:38.456Z,15.86
2022-10-19T06:10:40.007Z,15.88
2022-10-19T06:14:42.804Z,15.89
2022-10-19T06:18:44.974Z,15.91
2022-10-19T06:22:46.514Z,15.92
2022-10-19T06:26:48.178Z,15.93
2022-10-19T06:30:49.853Z,15.99
2022-10-19T06:34:56.483Z,16.03
2022-10-19T06:38:59.887Z,16.01
2022-10-19T06:43:01.531Z,16.04
2022-10-19T06:47:03.103Z,16.08
2022-10-19T06:51:09.228Z,16.11
2022-10-19T06:55:10.760Z,16.10
2022-10-19T06:59:14.784Z,16.08
2022-10-19T07:03:16.600Z,15.98
2022-10-19T07:07:18.127Z,16.06
2022-10-19T07:11:22.225Z,16.06
2022-10-19T07:15:23.758Z,16.07
2022-10-19T07:19:26.433Z,16.14
2022-10-19T07:23:29.758Z,16.13
2022-10-19T07:27:36.677Z,16.16
2022-10-19T07:31:39.066Z,16.18
2022-10-19T07:35:40.613Z,16.25
2022-10-19T07:39:42.215Z,16.22
2022-10-19T07:43:45.279Z,16.25
2022-10-19T07:47:46.870Z,16.29
2022-10-19T07:51:48.422Z,16.34
2022-10-19T07:55:50.177Z,16.36
2022-10-19T07:59:51.757Z,16.42
2022-10-19T08:08:16.730Z,16.48
2022-10-19T08:12:18.236Z,16.50
2022-10-19T08:16:28.012Z,16.52
2022-10-19T08:20:29.582Z,16.54
2022-10-19T08:24:32.367Z,16.59
2022-10-19T08:28:33.885Z,16.65
2022-10-19T08:32:35.711Z,16.67
2022-10-19T08:36:37.709Z,16.62
2022-10-19T08:40:39.412Z,16.59
2022-10-19T08:45:22.098Z,16.54
2022-10-19T08:49:26.809Z,16.59
2022-10-19T08:53:39.869Z,16.80
2022-10-19T08:57:53.488Z,16.87
2022-10-19T09:02:02.254Z,16.99
2022-10-19T09:06:16.548Z,17.05
2022-10-19T09:10:26.152Z,17.12
2022-10-19T09:14:40.840Z,17.15
2022-10-19T09:18:43.570Z,17.20
2022-10-19T09:22:46.662Z,17.21
2022-10-19T09:26:57.033Z,17.35
2022-10-19T09:30:59.825Z,17.42
2022-10-19T09:35:05.057Z,17.54
2022-10-19T09:39:06.861Z,17.45
2022-10-19T09:43:20.020Z,17.43
2022-10-19T09:47:38.389Z,17.43
2022-10-19T09:51:46.780Z,17.42
2022-10-19T09:55:57.192Z,17.47
2022-10-19T09:59:59.064Z,17.49
2022-10-19T10:04:14.408Z,17.43
2022-10-19T10:08:19.942Z,17.42
2022-10-19T10:12:22.669Z,17.47
2022-10-19T10:21:25.402Z,17.70
2022-10-19T10:25:33.970Z,17.87
2022-10-19T10:29:37.887Z,17.91
2022-10-19T10:33:45.014Z,17.94
2022-10-19T10:37:47.819Z,17.95
2022-10-19T10:41:49.434Z,18.11
2022-10-19T10:45:55.271Z,18.21
2022-10-19T10:49:59.952Z,18.39
2022-10-19T10:54:19.348Z,18.49
2022-10-19T10:58:47.930Z,18.72
2022-10-19T11:03:05.675Z,18.87
2022-10-19T11:07:40.363Z,18.99
2022-10-19T11:11:47.073Z,19.24
2022-10-19T11:15:59.026Z,19.13
2022-10-19T11:20:02.067Z,18.99
2022-10-19T11:24:25.584Z,18.82
2022-10-19T11:28:49.818Z,18.68
2022-10-19T11:33:07.741Z,18.64
2022-10-19T11:38:06.718Z,18.60
2022-10-19T11:42:48.536Z,18.66
2022-10-19T11:47:17.566Z,18.74
2022-10-19T11:51:46.497Z,18.93
2022-10-19T11:56:13.402Z,19.05
2022-10-19T12:00:38.164Z,19.15
2022-10-19T12:05:01.327Z,19.28
2022-10-19T12:09:18.470Z,19.50
2022-10-19T12:13:26.013Z,19.72
2022-10-19T12:17:32.690Z,19.71
2022-10-19T12:21:38.102Z,19.57
2022-10-19T12:25:44.377Z,19.58
2022-10-19T12:29:49.408Z,19.60
2022-10-19T12:34:18.817Z,19.52
2022-10-19T12:38:59.717Z,19.52
2022-10-19T12:43:29.510Z,19.55
2022-10-19T12:47:31.779Z,19.47
2022-10-19T12:51:45.703Z,19.58
2022-10-19T12:56:01.570Z,19.55
2022-10-19T13:00:22.265Z,19.61
2022-10-19T13:04:27.635Z,19.65
2022-10-19T13:08:58.037Z,19.70
2022-10-19T13:13:00.801Z,19.79
2022-10-19T13:17:03.899Z,19.85
2022-10-19T13:21:08.487Z,19.85
2022-10-19T13:25:16.522Z,19.86
2022-10-19T13:29:26.000Z,19.89
2022-10-19T13:33:33.434Z,19.92
2022-10-19T13:37:35.081Z,20.01
2022-10-19T13:41:36.560Z,19.90
2022-10-19T13:45:40.235Z,19.90
2022-10-19T13:50:04.299Z,19.86
2022-10-19T13:54:34.472Z,19.82
2022-10-19T13:58:56.419Z,19.86
2022-10-19T14:03:09.332Z,19.94
2022-10-19T14:07:24.975Z,19.97
2022-10-19T14:11:31.976Z,20.07
2022-10-19T14:15:34.808Z,20.10
2022-10-19T14:19:54.321Z,20.13
2022-10-19T14:23:55.823Z,20.05
2022-10-19T14:28:04.935Z,19.89
2022-10-19T14:32:08.630Z,19.90
2022-10-19T14:36:17.905Z,19.86
2022-10-19T14:40:31.582Z,19.83
2022-10-19T14:44:40.007Z,19.76
2022-10-19T14:48:47.175Z,19.65
2022-10-19T14:52:52.249Z,19.58
2022-10-19T14:57:33.346Z,19.57
2022-10-19T15:01:36.052Z,19.49
2022-10-19T15:05:45.812Z,19.43
2022-10-19T15:10:02.676Z,19.28
2022-10-19T15:14:17.347Z,19.20
2022-10-19T15:18:43.896Z,19.12
2022-10-19T15:22:42.970Z,19.05
2022-10-19T15:27:01.747Z,18.99
2022-10-19T15:31:25.601Z,18.97
2022-10-19T15:35:31.367Z,18.93
2022-10-19T15:39:42.119Z,18.87
2022-10-19T15:43:49.432Z,18.84
2022-10-19T15:48:09.873Z,18.78
2022-10-19T15:52:24.016Z,18.62
2022-10-19T15:56:28.389Z,18.53
2022-10-19T16:00:30.362Z,18.44
2022-10-19T16:04:31.859Z,18.35
2022-10-19T16:08:33.455Z,18.28
2022-10-19T16:12:34.970Z,18.16
2022-10-19T16:16:36.787Z,18.05
2022-10-19T16:20:38.823Z,17.95
2022-10-19T16:24:40.822Z,17.89
2022-10-19T16:28:42.628Z,17.80
2022-10-19T16:32:44.251Z,17.71
2022-10-19T16:36:46.089Z,17.62
2022-10-19T16:40:47.612Z,17.54
2022-10-19T16:44:49.155Z,17.47
2022-10-19T16:48:51.353Z,17.45
2022-10-19T16:53:10.351Z,17.36
2022-10-19T16:57:12.107Z,17.27
2022-10-19T17:01:18.742Z,17.17
2022-10-19T17:05:20.397Z,17.09
2022-10-19T17:09:41.801Z,17.02
2022-10-19T17:13:44.885Z,16.96
2022-10-19T17:17:46.376Z,16.91
2022-10-19T17:21:49.447Z,16.85
2022-10-19T17:25:51.441Z,16.81
2022-10-19T17:29:52.988Z,16.75
2022-10-19T17:33:55.201Z,16.75
2022-10-19T17:37:56.783Z,16.73
2022-10-19T17:42:01.879Z,16.72
2022-10-19T17:46:06.438Z,16.70
2022-10-19T17:50:08.491Z,16.69
2022-10-19T17:54:12.399Z,16.65
2022-10-19T17:58:14.005Z,16.60
2022-10-19T18:02:15.559Z,16.55
2022-10-19T18:06:26.872Z,16.54
2022-10-19T18:10:29.525Z,16.48
2022-10-19T18:14:31.036Z,16.41
2022-10-19T18:18:34.857Z,16.34
2022-10-19T18:22:36.802Z,16.32
2022-10-19T18:26:38.539Z,16.30
2022-10-19T18:30:40.632Z,16.30
2022-10-19T18:34:42.196Z,16.29
2022-10-19T18:38:43.885Z,16.22
2022-10-19T18:42:45.402Z,16.11
2022-10-19T18:46:47.015Z,16.07
2022-10-19T18:50:48.714Z,16.06
2022-10-19T18:54:50.295Z,16.01
2022-10-19T18:58:51.943Z,15.96
2022-10-19T19:02:56.634Z,15.93
2022-10-19T19:06:58.249Z,15.86
2022-10-19T19:11:10.717Z,15.88
2022-10-19T19:15:12.383Z,15.88
2022-10-19T19:19:17.232Z,15.85
2022-10-19T19:23:19.374Z,15.78
2022-10-19T19:27:28.283Z,15.68
2022-10-19T19:31:32.394Z,15.59
2022-10-19T19:35:34.032Z,15.55
2022-10-19T19:39:35.790Z,15.55
2022-10-19T19:43:38.793Z,15.53
2022-10-19T19:47:40.384Z,15.55
2022-10-19T19:51:41.921Z,15.48
2022-10-19T19:55:46.513Z,15.37
2022-10-19T19:59:48.041Z,15.41
2022-10-19T20:03:49.619Z,15.38
2022-10-19T20:07:52.038Z,15.37
2022-10-19T20:11:53.620Z,15.34
2022-10-19T20:15:55.204Z,15.33
2022-10-19T20:19:56.835Z,15.31
2022-10-19T20:23:58.362Z,15.33
2022-10-19T20:27:59.929Z,15.33
2022-10-19T20:32:01.437Z,15.35
2022-10-19T20:36:15.417Z,15.30
2022-10-19T20:40:17.920Z,15.28
2022-10-19T20:44:20.095Z,15.28
2022-10-19T20:48:21.549Z,15.28
2022-10-19T20:52:23.308Z,15.28
2022-10-19T20:56:27.640Z,15.25
2022-10-19T21:00:29.230Z,15.22
2022-10-19T21:04:30.750Z,15.22
2022-10-19T21:08:34.315Z,15.23
2022-10-19T21:12:36.230Z,15.23
2022-10-19T21:16:38.838Z,15.23
2022-10-19T21:20:40.321Z,15.22
2022-10-19T21:24:41.891Z,15.23
2022-10-19T21:28:48.435Z,15.22
2022-10-19T21:32:50.031Z,15.22
2022-10-19T21:36:51.754Z,15.19
2022-10-19T21:40:57.700Z,15.16
2022-10-19T21:45:01.375Z,15.12
2022-10-19T21:49:19.725Z,15.12
2022-10-19T21:53:23.477Z,15.09
2022-10-19T21:57:25.023Z,15.04
2022-10-19T22:01:29.628Z,15.05
2022-10-19T22:05:31.300Z,15.04
2022-10-19T22:09:33.577Z,15.09
2022-10-19T22:13:36.117Z,15.09
2022-10-19T22:17:37.633Z,15.11
2022-10-19T22:21:39.681Z,15.05
2022-10-19T22:25:41.343Z,15.05
2022-10-19T22:29:42.973Z,15.03
2022-10-19T22:33:44.553Z,15.00
2022-10-19T22:37:46.096Z,14.95
2022-10-19T22:41:47.583Z,14.93
2022-10-19T22:45:50.109Z,14.90
2022-10-19T22:49:51.602Z,14.86
2022-10-19T22:53:53.278Z,14.86
2022-10-19T22:57:54.777Z,14.87
2022-10-19T23:01:56.368Z,14.85
2022-10-19T23:05:58.017Z,14.80
2022-10-19T23:09:59.579Z,14.78
2022-10-19T23:14:01.265Z,14.72
2022-10-19T23:18:02.775Z,14.69
2022-10-19T23:22:04.351Z,14.67
2022-10-19T23:26:14.849Z,14.61
2022-10-19T23:30:16.375Z,14.63
2022-10-19T23:34:17.898Z,14.59
2022-10-19T23:38:19.374Z,14.57
2022-10-19T23:42:20.897Z,14.56
2022-10-19T23:46:22.383Z,14.53
2022-10-19T23:50:23.973Z,14.48
2022-10-19T23:54:25.487Z,14.45
2022-10-19T23:58:27.815Z,14.41
